Time;durP1;ratioP1;P1;durP2;ratioP2;P2;SDS_P1;SDS_P2;PMS_P1;PMS_P2;Temp;Humidity;BMP_temperature;BMP_pressure;BME280_temperature;BME280_humidity;BME280_pressure;Samples;Min_cycle;Max_cycle;Signal;HPM_P1;HPM_P2
2022/01/06 00:00:24;;;;;;;;;;;;;;;;;;7390246;19;19925;-56
2022/01/06 00:02:52;;;;;;;;;;;;;;;;;;7389999;19;19923;-53
2022/01/06 00:05:19;;;;;;;;;;;;;;;;;;7389472;19;19923;-52
2022/01/06 00:07:46;;;;;;;;;;;;;;;;;;7388611;19;19923;-52
2022/01/06 00:10:14;;;;;;;;;;;;;;;;;;7388093;19;19926;-54
2022/01/06 00:12:51;;;;;;;;;;;;;;;;;;7388474;19;19993;-53
2022/01/06 00:15:37;;;;;;;;;;;;;;;;;;7389322;19;19919;-56
2022/01/06 00:25:52;;;;;;;;;;;;;;;;;;7389314;19;19919;-52
2022/01/06 00:28:19;;;;;;;;;;;;;;;;;;7387051;19;20011;-53
2022/01/06 00:30:47;;;;;;;;;;;;;;;;;;7388778;19;19919;-50
2022/01/06 00:33:14;;;;;;;;;;;;;;;;;;7389063;19;19922;-57
2022/01/06 00:35:41;;;;;;;;;;;;;;;;;;7388403;19;20498;-55
2022/01/06 00:38:09;;;;;;;;;;;;;;;;;;7387906;19;19919;-52
2022/01/06 00:40:37;;;;;;;;;;;;;;;;;;7388376;19;19939;-55
2022/01/06 00:43:05;;;;;;;;;;;;;;;;;;7388593;19;19918;-52
2022/01/06 00:45:33;;;;;;;;;;;;;;;;;;7388705;19;20262;-48
2022/01/06 00:48:00;;;;;;;;;;;;;;;;;;7386997;19;19943;-52
2022/01/06 00:50:28;;;;;;;;;;;;;;;;;;7390575;19;20258;-57
2022/01/06 00:52:55;;;;;;;;;;;;;;;;;;7388317;19;19918;-50
2022/01/06 00:55:22;;;;;;;;;;;;;;;;;;7389212;19;19931;-52
2022/01/06 00:57:49;;;;;;;;;;;;;;;;;;7387362;19;19919;-57
2022/01/06 01:00:16;;;;;;;;;;;;;;;;;;7388016;19;19922;-52
2022/01/06 01:02:43;;;;;;;;;;;;;;;;;;7387183;19;19926;-51
2022/01/06 01:05:11;;;;;;;;;;;;;;;;;;7386928;19;20355;-55
2022/01/06 01:07:38;;;;;;;;;;;;;;;;;;7386866;19;19922;-58
2022/01/06 01:10:05;;;;;;;;;;;;;;;;;;7387359;19;19934;-51
2022/01/06 01:12:33;;;;;;;;;;;;;;;;;;7387710;19;19929;-53
2022/01/06 01:15:06;;;;;;;;;;;;;;;;;;7386142;19;19919;-50
2022/01/06 01:17:34;;;;;;;;;;;;;;;;;;7387746;19;19926;-57
2022/01/06 01:20:02;;;;;;;;;;;;;;;;;;7387593;19;19919;-49
2022/01/06 01:22:29;;;;;;;;;;;;;;;;;;7390132;19;19923;-51
2022/01/06 01:24:56;;;;;;;;;;;;;;;;;;7395025;19;20328;-57
2022/01/06 01:27:24;;;;;;;;;;;;;;;;;;7392111;19;20002;-53
2022/01/06 01:29:58;;;;;;;;;;;;;;;;;;7394633;19;19922;-54
2022/01/06 01:32:31;;;;;;;;;;;;;;;;;;7394056;19;19923;-55
2022/01/06 01:35:02;;;;;;;;;;;;;;;;;;7394927;19;19923;-52
2022/01/06 01:37:31;;;;;;;;;;;;;;;;;;7392853;19;20632;-53
2022/01/06 01:39:58;;;;;;;;;;;;;;;;;;7394195;19;19923;-60
2022/01/06 01:42:26;;;;;;;;;;;;;;;;;;7394985;19;19922;-56
2022/01/06 01:44:54;;;;;;;;;;;;;;;;;;7393456;19;20377;-54
2022/01/06 01:47:57;;;;;;;;;;;;;;;;;;7393758;19;19923;-53
2022/01/06 01:50:16;;;;;;;;;;;;;;;;;;7394883;19;20351;-49
2022/01/06 01:52:45;;;;;;;;;;;;;;;;;;7394908;19;19930;-56
2022/01/06 01:55:14;;;;;;;;;;;;;;;;;;7393818;19;19922;-55
2022/01/06 01:57:41;;;;;;;;;;;;;;;;;;7392324;19;19939;-52
2022/01/06 02:00:10;;;;;;;;;;;;;;;;;;7393644;19;19930;-56
2022/01/06 02:02:41;;;;;;;;;;;;;;;;;;7393144;19;19919;-56
2022/01/06 02:05:09;;;;;;;;;;;;;;;;;;7393901;19;19919;-56
2022/01/06 02:07:38;;;;;;;;;;;;;;;;;;7392001;19;20362;-55
2022/01/06 02:10:06;;;;;;;;;;;;;;;;;;7394937;19;19919;-53
2022/01/06 02:12:36;;;;;;;;;;;;;;;;;;7393126;19;19914;-54
2022/01/06 02:15:05;;;;;;;;;;;;;;;;;;7393867;19;19915;-57
2022/01/06 02:17:32;;;;;;;;;;;;;;;;;;7393269;19;19939;-58
2022/01/06 02:20:00;;;;;;;;;;;;;;;;;;7393021;19;19915;-56
2022/01/06 02:22:28;;;;;;;;;;;;;;;;;;7394001;19;19937;-53
2022/01/06 02:24:55;;;;;;;;;;;;;;;;;;7393621;19;19915;-60
2022/01/06 02:27:22;;;;;;;;;;;;;;;;;;7392257;19;19914;-54
2022/01/06 02:29:50;;;;;;;;;;;;;;;;;;7393045;19;19921;-56
2022/01/06 02:32:19;;;;;;;;;;;;;;;;;;7393336;19;19919;-53
2022/01/06 02:34:46;;;;;;;;;;;;;;;;;;7390394;19;19954;-53
2022/01/06 02:37:14;;;;;;;;;;;;;;;;;;7392758;19;19921;-53
2022/01/06 02:39:42;;;;;;;;;;;;;;;;;;7392394;19;19923;-55
2022/01/06 02:42:10;;;;;;;;;;;;;;;;;;7393219;19;19983;-57
2022/01/06 02:44:38;;;;;;;;;;;;;;;;;;7393238;19;20014;-56
2022/01/06 02:47:06;;;;;;;;;;;;;;;;;;7391780;19;19922;-52
2022/01/06 02:49:33;;;;;;;;;;;;;;;;;;7390799;19;20328;-51
2022/01/06 02:52:01;;;;;;;;;;;;;;;;;;7392325;19;19923;-53
2022/01/06 02:54:28;;;;;;;;;;;;;;;;;;7392533;19;19963;-52
2022/01/06 02:56:55;;;;;;;;;;;;;;;;;;7391545;19;19915;-57
2022/01/06 02:59:23;;;;;;;;;;;;;;;;;;7392714;19;19926;-57
2022/01/06 03:01:50;;;;;;;;;;;;;;;;;;7391707;19;19918;-52
2022/01/06 03:04:20;;;;;;;;;;;;;;;;;;7391656;19;19929;-52
2022/01/06 03:06:47;;;;;;;;;;;;;;;;;;7392150;19;19915;-52
2022/01/06 03:09:14;;;;;;;;;;;;;;;;;;7387971;19;19919;-58
2022/01/06 03:11:44;;;;;;;;;;;;;;;;;;7390536;19;19930;-56
2022/01/06 03:14:11;;;;;;;;;;;;;;;;;;7391701;19;20002;-53
2022/01/06 03:16:38;;;;;;;;;;;;;;;;;;7391044;19;19925;-55
2022/01/06 03:19:05;;;;;;;;;;;;;;;;;;7391551;19;19923;-51
2022/01/06 03:21:32;;;;;;;;;;;;;;;;;;7391024;19;20067;-52
2022/01/06 03:24:00;;;;;;;;;;;;;;;;;;7391302;19;19919;-58
2022/01/06 03:26:27;;;;;;;;;;;;;;;;;;7390775;19;19931;-57
2022/01/06 03:28:54;;;;;;;;;;;;;;;;;;7390116;19;19918;-53
2022/01/06 03:31:22;;;;;;;;;;;;;;;;;;7389170;19;19918;-56
2022/01/06 03:33:49;;;;;;;;;;;;;;;;;;7391302;19;19951;-56
2022/01/06 03:36:16;;;;;;;;;;;;;;;;;;7390881;19;20396;-53
2022/01/06 03:38:43;;;;;;;;;;;;;;;;;;7390321;19;19931;-56
2022/01/06 03:41:10;;;;;;;;;;;;;;;;;;7390715;19;19923;-55
2022/01/06 03:43:38;;;;;;;;;;;;;;;;;;7390975;19;19918;-58
2022/01/06 03:46:05;;;;;;;;;;;;;;;;;;7389698;19;19931;-58
2022/01/06 03:48:32;;;;;;;;;;;;;;;;;;7387544;19;19915;-60
2022/01/06 03:50:59;;;;;;;;;;;;;;;;;;7392954;19;19934;-56
2022/01/06 03:53:26;;;;;;;;;;;;;;;;;;7389381;19;19919;-56
2022/01/06 03:55:54;;;;;;;;;;;;;;;;;;7389041;19;19938;-60
2022/01/06 03:58:21;;;;;;;;;;;;;;;;;;7390308;19;19919;-58
2022/01/06 04:00:48;;;;;;;;;;;;;;;;;;7389919;19;19937;-58
2022/01/06 04:03:15;;;;;;;;;;;;;;;;;;7388527;19;19922;-55
2022/01/06 04:05:43;;;;;;;;;;;;;;;;;;7389561;19;19938;-56
2022/01/06 04:08:10;;;;;;;;;;;;;;;;;;7388112;19;19922;-57
2022/01/06 04:10:37;;;;;;;;;;;;;;;;;;7389147;19;19937;-59
2022/01/06 04:13:04;;;;;;;;;;;;;;;;;;7389667;19;20331;-59
2022/01/06 04:15:32;;;;;;;;;;;;;;;;;;7388709;19;19923;-60
2022/01/06 04:17:59;;;;;;;;;;;;;;;;;;7389148;19;19926;-55
2022/01/06 04:20:26;;;;;;;;;;;;;;;;;;7389520;19;19946;-58
2022/01/06 04:22:53;;;;;;;;;;;;;;;;;;7388535;19;20352;-57
2022/01/06 04:25:20;;;;;;;;;;;;;;;;;;7387807;19;19934;-59
2022/01/06 04:27:47;;;;;;;;;;;;;;;;;;7387103;19;20005;-59
2022/01/06 04:30:15;;;;;;;;;;;;;;;;;;7388771;19;19925;-57
2022/01/06 04:32:42;;;;;;;;;;;;;;;;;;7388781;19;19915;-58
2022/01/06 04:35:10;;;;;;;;;;;;;;;;;;7388573;19;19926;-59
2022/01/06 04:37:37;;;;;;;;;;;;;;;;;;7388427;19;19939;-59
2022/01/06 04:40:05;;;;;;;;;;;;;;;;;;7388888;19;19918;-57
2022/01/06 04:42:33;;;;;;;;;;;;;;;;;;7388502;19;19922;-60
2022/01/06 04:45:00;;;;;;;;;;;;;;;;;;7388832;19;19918;-54
2022/01/06 04:47:27;;;;;;;;;;;;;;;;;;7388220;19;19952;-58
2022/01/06 04:49:54;;;;;;;;;;;;;;;;;;7390564;19;19915;-56
2022/01/06 04:52:21;;;;;;;;;;;;;;;;;;7387400;19;19930;-55
2022/01/06 04:54:49;;;;;;;;;;;;;;;;;;7388614;19;19926;-57
2022/01/06 04:57:17;;;;;;;;;;;;;;;;;;7385957;19;20363;-57
2022/01/06 04:59:44;;;;;;;;;;;;;;;;;;7388306;19;19915;-57
2022/01/06 05:02:11;;;;;;;;;;;;;;;;;;7388251;19;20358;-55
2022/01/06 05:04:39;;;;;;;;;;;;;;;;;;7388124;19;20249;-57
2022/01/06 05:07:06;;;;;;;;;;;;;;;;;;7387989;19;19951;-56
2022/01/06 05:09:33;;;;;;;;;;;;;;;;;;7386326;19;19919;-55
2022/01/06 05:12:01;;;;;;;;;;;;;;;;;;7384737;19;19970;-55
2022/01/06 05:14:28;;;;;;;;;;;;;;;;;;7388156;19;20412;-57
2022/01/06 05:16:56;;;;;;;;;;;;;;;;;;7387852;19;20268;-55
2022/01/06 05:19:23;;;;;;;;;;;;;;;;;;7387971;19;19931;-56
2022/01/06 05:21:54;;;;;;;;;;;;;;;;;;7386014;19;19922;-54
2022/01/06 05:24:23;;;;;;;;;;;;;;;;;;7387486;19;19930;-55
2022/01/06 05:26:50;;;;;;;;;;;;;;;;;;7386117;19;19923;-58
2022/01/06 05:29:18;;;;;;;;;;;;;;;;;;7386253;19;19927;-52
2022/01/06 05:31:45;;;;;;;;;;;;;;;;;;7386697;19;20332;-53
2022/01/06 05:34:12;;;;;;;;;;;;;;;;;;7386447;19;19915;-54
2022/01/06 05:36:39;;;;;;;;;;;;;;;;;;7387037;19;19914;-57
2022/01/06 05:39:07;;;;;;;;;;;;;;;;;;7387090;19;19923;-55
2022/01/06 05:41:34;;;;;;;;;;;;;;;;;;7386918;19;19919;-60
2022/01/06 05:44:01;;;;;;;;;;;;;;;;;;7387349;19;19930;-60
2022/01/06 05:46:28;;;;;;;;;;;;;;;;;;7386820;19;19982;-56
2022/01/06 05:48:56;;;;;;;;;;;;;;;;;;7386225;19;19918;-56
2022/01/06 05:51:23;;;;;;;;;;;;;;;;;;7390790;19;19923;-58
2022/01/06 05:53:51;;;;;;;;;;;;;;;;;;7387293;19;20303;-57
2022/01/06 05:56:18;;;;;;;;;;;;;;;;;;7386544;19;19926;-57
2022/01/06 05:58:46;;;;;;;;;;;;;;;;;;7386131;19;19919;-59
2022/01/06 06:01:13;;;;;;;;;;;;;;;;;;7386400;19;19922;-58
2022/01/06 06:03:40;;;;;;;;;;;;;;;;;;7384743;19;19910;-56
2022/01/06 06:06:08;;;;;;;;;;;;;;;;;;7386530;19;19922;-51
2022/01/06 06:08:35;;;;;;;;;;;;;;;;;;7385490;19;19923;-58
2022/01/06 06:11:02;;;;;;;;;;;;;;;;;;7391349;19;19929;-56
2022/01/06 06:13:29;;;;;;;;;;;;;;;;;;7392427;19;19919;-54
2022/01/06 06:15:57;;;;;;;;;;;;;;;;;;7393855;19;19923;-55
2022/01/06 06:18:24;;;;;;;;;;;;;;;;;;7393850;19;19923;-54
2022/01/06 06:20:52;;;;;;;;;;;;;;;;;;7393262;19;19963;-55
2022/01/06 06:23:19;;;;;;;;;;;;;;;;;;7391184;19;19915;-52
2022/01/06 06:25:46;;;;;;;;;;;;;;;;;;7393009;19;19962;-59
2022/01/06 06:28:14;;;;;;;;;;;;;;;;;;7392461;19;19919;-57
2022/01/06 06:30:41;;;;;;;;;;;;;;;;;;7391538;19;19921;-56
2022/01/06 06:33:08;;;;;;;;;;;;;;;;;;7389682;19;20344;-56
2022/01/06 06:35:35;;;;;;;;;;;;;;;;;;7392365;19;19922;-54
2022/01/06 06:38:03;;;;;;;;;;;;;;;;;;7392231;19;19979;-56
2022/01/06 06:40:30;;;;;;;;;;;;;;;;;;7392482;19;19926;-58
2022/01/06 06:42:58;;;;;;;;;;;;;;;;;;7392662;19;19915;-57
2022/01/06 06:45:25;;;;;;;;;;;;;;;;;;7393951;19;19922;-52
2022/01/06 06:47:52;;;;;;;;;;;;;;;;;;7391687;19;19925;-59
2022/01/06 06:50:21;;;;;;;;;;;;;;;;;;7393556;19;20352;-59
2022/01/06 06:52:49;;;;;;;;;;;;;;;;;;7388751;19;19922;-56
2022/01/06 06:55:16;;;;;;;;;;;;;;;;;;7385812;19;20011;-57
2022/01/06 06:57:44;;;;;;;;;;;;;;;;;;7385528;19;19918;-57
2022/01/06 07:00:11;;;;;;;;;;;;;;;;;;7386972;19;19926;-54
2022/01/06 07:02:39;;;;;;;;;;;;;;;;;;7386193;19;19922;-56
2022/01/06 07:05:07;;;;;;;;;;;;;;;;;;7389968;19;19919;-59
2022/01/06 07:07:35;;;;;;;;;;;;;;;;;;7385861;19;19980;-52
2022/01/06 07:10:03;;;;;;;;;;;;;;;;;;7385326;19;19929;-59
2022/01/06 07:12:30;;;;;;;;;;;;;;;;;;7385317;19;20344;-54
2022/01/06 07:15:00;;;;;;;;;;;;;;;;;;7387000;19;19950;-55
2022/01/06 07:17:27;;;;;;;;;;;;;;;;;;7387042;19;19935;-57
2022/01/06 07:19:54;;;;;;;;;;;;;;;;;;7383384;19;19918;-60
2022/01/06 07:22:22;;;;;;;;;;;;;;;;;;7387405;19;20024;-53
2022/01/06 07:24:49;;;;;;;;;;;;;;;;;;7387239;19;20370;-54
2022/01/06 07:27:16;;;;;;;;;;;;;;;;;;7386379;19;20071;-54
2022/01/06 07:29:43;;;;;;;;;;;;;;;;;;7384660;19;19918;-54
2022/01/06 07:32:11;;;;;;;;;;;;;;;;;;7386016;19;19946;-59
2022/01/06 07:34:38;;;;;;;;;;;;;;;;;;7387003;19;19930;-57
2022/01/06 07:37:06;;;;;;;;;;;;;;;;;;7386622;19;19938;-56
2022/01/06 07:39:33;;;;;;;;;;;;;;;;;;7385122;19;20344;-58
2022/01/06 07:42:00;;;;;;;;;;;;;;;;;;7386455;19;19962;-58
2022/01/06 07:44:28;;;;;;;;;;;;;;;;;;7384773;19;19938;-57
2022/01/06 07:46:55;;;;;;;;;;;;;;;;;;7386850;19;19954;-54
2022/01/06 07:49:22;;;;;;;;;;;;;;;;;;7384584;19;19911;-57
2022/01/06 07:51:50;;;;;;;;;;;;;;;;;;7383630;19;20337;-55
2022/01/06 07:54:17;;;;;;;;;;;;;;;;;;7384379;19;19919;-55
2022/01/06 07:56:44;;;;;;;;;;;;;;;;;;7383081;19;19918;-57
2022/01/06 07:59:13;;;;;;;;;;;;;;;;;;7381842;19;19918;-57
2022/01/06 08:01:40;;;;;;;;;;;;;;;;;;7379754;19;19919;-53
2022/01/06 08:04:08;;;;;;;;;;;;;;;;;;7381650;19;19946;-55
2022/01/06 08:06:35;;;;;;;;;;;;;;;;;;7382219;19;19919;-57
2022/01/06 08:09:02;;;;;;;;;;;;;;;;;;7380718;19;20393;-57
2022/01/06 08:11:30;;;;;;;;;;;;;;;;;;7379066;19;19950;-56
2022/01/06 08:13:57;;;;;;;;;;;;;;;;;;7382278;19;19927;-54
2022/01/06 08:16:25;;;;;;;;;;;;;;;;;;7381345;19;19915;-56
2022/01/06 08:18:52;;;;;;;;;;;;;;;;;;7383698;19;19922;-53
2022/01/06 08:21:20;;;;;;;;;;;;;;;;;;7385670;19;19933;-52
2022/01/06 08:23:47;;;;;;;;;;;;;;;;;;7386031;19;20336;-56
2022/01/06 08:26:15;;;;;;;;;;;;;;;;;;7384959;19;19939;-53
2022/01/06 08:28:46;;;;;;;;;;;;;;;;;;7383079;19;19915;-54
2022/01/06 08:31:14;;;;;;;;;;;;;;;;;;7383991;19;20344;-56
2022/01/06 08:33:41;;;;;;;;;;;;;;;;;;7382839;19;19926;-50
2022/01/06 08:36:09;;;;;;;;;;;;;;;;;;7383545;19;19943;-59
2022/01/06 08:38:36;;;;;;;;;;;;;;;;;;7383534;19;19936;-55
2022/01/06 08:41:03;;;;;;;;;;;;;;;;;;7384009;19;19911;-57
2022/01/06 08:43:30;;;;;;;;;;;;;;;;;;7385059;19;19919;-60
2022/01/06 08:45:58;;;;;;;;;;;;;;;;;;7383045;19;19929;-60
2022/01/06 08:48:25;;;;;;;;;;;;;;;;;;7383847;19;20364;-58
2022/01/06 08:50:53;;;;;;;;;;;;;;;;;;7386753;19;19919;-54
2022/01/06 08:53:21;;;;;;;;;;;;;;;;;;7384414;19;20678;-58
2022/01/06 08:55:48;;;;;;;;;;;;;;;;;;7384042;19;19926;-58
2022/01/06 08:58:16;;;;;;;;;;;;;;;;;;7383983;19;19918;-58
2022/01/06 09:00:43;;;;;;;;;;;;;;;;;;7384087;19;20503;-59
2022/01/06 09:03:11;;;;;;;;;;;;;;;;;;7383746;19;19914;-57
2022/01/06 09:05:40;;;;;;;;;;;;;;;;;;7380462;19;19926;-55
2022/01/06 09:08:07;;;;;;;;;;;;;;;;;;7382252;19;19982;-57
2022/01/06 09:10:37;;;;;;;;;;;;;;;;;;7381471;19;19922;-56
2022/01/06 09:13:24;;;;;;;;;;;;;;;;;;7384235;19;19926;-60
2022/01/06 09:15:51;;;;;;;;;;;;;;;;;;7383969;19;19928;-57
2022/01/06 09:18:19;;;;;;;;;;;;;;;;;;7383369;19;19923;-56
2022/01/06 09:20:46;;;;;;;;;;;;;;;;;;7383067;19;19919;-59
2022/01/06 09:23:13;;;;;;;;;;;;;;;;;;7382905;19;19914;-57
2022/01/06 09:25:40;;;;;;;;;;;;;;;;;;7383808;19;19929;-55
2022/01/06 09:28:08;;;;;;;;;;;;;;;;;;7383810;19;19918;-58
2022/01/06 09:30:36;;;;;;;;;;;;;;;;;;7379961;19;19919;-56
2022/01/06 09:33:04;;;;;;;;;;;;;;;;;;7383830;19;19923;-58
2022/01/06 09:35:31;;;;;;;;;;;;;;;;;;7383029;19;19918;-60
2022/01/06 09:37:58;;;;;;;;;;;;;;;;;;7384108;19;19923;-59
2022/01/06 09:40:25;;;;;;;;;;;;;;;;;;7385275;19;19915;-56
2022/01/06 09:42:53;;;;;;;;;;;;;;;;;;7387930;19;19923;-54
2022/01/06 09:45:24;;;;;;;;;;;;;;;;;;7394126;19;19919;-55
2022/01/06 09:47:52;;;;;;;;;;;;;;;;;;7393546;19;19917;-52
2022/01/06 09:50:19;;;;;;;;;;;;;;;;;;7391533;19;19922;-51
2022/01/06 09:52:46;;;;;;;;;;;;;;;;;;7394272;19;19929;-50
2022/01/06 09:55:14;;;;;;;;;;;;;;;;;;7393529;19;19914;-57
2022/01/06 09:57:49;;;;;;;;;;;;;;;;;;7393021;19;19942;-55
2022/01/06 10:00:18;;;;;;;;;;;;;;;;;;7393164;19;19946;-59
2022/01/06 10:02:51;;;;;;;;;;;;;;;;;;7392720;19;19970;-54
2022/01/06 10:05:18;;;;;;;;;;;;;;;;;;7392703;19;20256;-56
2022/01/06 10:07:46;;;;;;;;;;;;;;;;;;7394238;19;19919;-55
2022/01/06 10:10:14;;;;;;;;;;;;;;;;;;7390563;19;19915;-54
2022/01/06 10:12:42;;;;;;;;;;;;;;;;;;7393788;19;19923;-54
2022/01/06 10:15:23;;;;;;;;;;;;;;;;;;7394049;19;19942;-54
2022/01/06 10:17:51;;;;;;;;;;;;;;;;;;7393920;19;19918;-56
2022/01/06 10:20:20;;;;;;;;;;;;;;;;;;7393525;19;19974;-55
2022/01/06 10:22:52;;;;;;;;;;;;;;;;;;7393168;19;19936;-55
2022/01/06 10:25:21;;;;;;;;;;;;;;;;;;7392351;19;20131;-56
2022/01/06 10:27:49;;;;;;;;;;;;;;;;;;7393258;19;19919;-54
2022/01/06 10:30:17;;;;;;;;;;;;;;;;;;7390462;19;20223;-55
2022/01/06 10:32:44;;;;;;;;;;;;;;;;;;7391780;19;19960;-57
2022/01/06 10:35:17;;;;;;;;;;;;;;;;;;7392593;19;19998;-54
2022/01/06 10:37:46;;;;;;;;;;;;;;;;;;7392704;19;19919;-57
2022/01/06 10:40:16;;;;;;;;;;;;;;;;;;7392738;19;19926;-56
2022/01/06 10:42:45;;;;;;;;;;;;;;;;;;7391769;19;19914;-55
2022/01/06 10:45:16;;;;;;;;;;;;;;;;;;7391602;19;19934;-52
2022/01/06 10:47:45;;;;;;;;;;;;;;;;;;7392483;19;19922;-51
2022/01/06 10:50:21;;;;;;;;;;;;;;;;;;7391119;19;19982;-58
2022/01/06 10:52:50;;;;;;;;;;;;;;;;;;7392392;19;19919;-58
2022/01/06 10:55:17;;;;;;;;;;;;;;;;;;7390325;19;19915;-55
2022/01/06 10:58:03;;;;;;;;;;;;;;;;;;7391129;19;19911;-54
2022/01/06 11:00:31;;;;;;;;;;;;;;;;;;7390425;19;19919;-58
2022/01/06 11:03:11;;;;;;;;;;;;;;;;;;7391436;19;19942;-56
2022/01/06 11:05:45;;;;;;;;;;;;;;;;;;7391375;19;19921;-52
2022/01/06 11:08:16;;;;;;;;;;;;;;;;;;7391021;19;19941;-55
2022/01/06 11:10:50;;;;;;;;;;;;;;;;;;7387947;19;19927;-53
2022/01/06 11:13:17;;;;;;;;;;;;;;;;;;7390886;19;19919;-56
2022/01/06 11:15:44;;;;;;;;;;;;;;;;;;7391134;19;19915;-56
2022/01/06 11:18:20;;;;;;;;;;;;;;;;;;7391703;19;19944;-57
2022/01/06 11:20:47;;;;;;;;;;;;;;;;;;7390034;19;19951;-54
2022/01/06 11:23:21;;;;;;;;;;;;;;;;;;7391113;19;19925;-53
2022/01/06 11:26:11;;;;;;;;;;;;;;;;;;7391757;19;19939;-53
2022/01/06 11:28:39;;;;;;;;;;;;;;;;;;7390793;19;19929;-56
2022/01/06 11:31:12;;;;;;;;;;;;;;;;;;7387278;19;19938;-55
2022/01/06 11:34:09;;;;;;;;;;;;;;;;;;7390949;19;19919;-57
2022/01/06 11:36:36;;;;;;;;;;;;;;;;;;7389752;19;19943;-55
2022/01/06 11:39:06;;;;;;;;;;;;;;;;;;7390679;19;20647;-56
2022/01/06 11:41:39;;;;;;;;;;;;;;;;;;7390534;19;19919;-56
2022/01/06 11:44:17;;;;;;;;;;;;;;;;;;7389140;19;19911;-58
2022/01/06 11:46:46;;;;;;;;;;;;;;;;;;7390076;19;19915;-58
2022/01/06 11:49:14;;;;;;;;;;;;;;;;;;7389595;19;20346;-54
2022/01/06 11:51:42;;;;;;;;;;;;;;;;;;7394826;19;19919;-55
2022/01/06 11:54:17;;;;;;;;;;;;;;;;;;7389858;19;19930;-57
2022/01/06 11:56:44;;;;;;;;;;;;;;;;;;7388441;19;19922;-51
2022/01/06 11:59:12;;;;;;;;;;;;;;;;;;7389662;19;20347;-53
2022/01/06 12:01:46;;;;;;;;;;;;;;;;;;7389205;19;19919;-50
2022/01/06 12:04:18;;;;;;;;;;;;;;;;;;7387903;19;19914;-54
2022/01/06 12:06:46;;;;;;;;;;;;;;;;;;7388559;19;19919;-54
2022/01/06 12:09:23;;;;;;;;;;;;;;;;;;7389304;19;20262;-54
2022/01/06 12:12:07;;;;;;;;;;;;;;;;;;7387461;19;20384;-50
2022/01/06 12:14:34;;;;;;;;;;;;;;;;;;7389269;19;19911;-52
2022/01/06 12:17:02;;;;;;;;;;;;;;;;;;7388534;19;19923;-58
2022/01/06 12:19:29;;;;;;;;;;;;;;;;;;7389077;19;19915;-53
2022/01/06 12:21:57;;;;;;;;;;;;;;;;;;7388748;19;19951;-52
2022/01/06 12:24:24;;;;;;;;;;;;;;;;;;7387952;19;19943;-55
2022/01/06 12:26:51;;;;;;;;;;;;;;;;;;7388714;19;20248;-54
2022/01/06 12:29:20;;;;;;;;;;;;;;;;;;7389073;19;20340;-53
2022/01/06 12:31:48;;;;;;;;;;;;;;;;;;7390767;19;19915;-54
2022/01/06 12:34:15;;;;;;;;;;;;;;;;;;7392344;19;19914;-50
2022/01/06 12:36:45;;;;;;;;;;;;;;;;;;7391828;19;19922;-54
2022/01/06 12:39:19;;;;;;;;;;;;;;;;;;7391843;19;19921;-53
2022/01/06 12:41:51;;;;;;;;;;;;;;;;;;7391708;19;20143;-57
2022/01/06 12:44:24;;;;;;;;;;;;;;;;;;7391410;19;19923;-56
2022/01/06 12:46:51;;;;;;;;;;;;;;;;;;7389237;19;19956;-54
2022/01/06 12:49:20;;;;;;;;;;;;;;;;;;7390241;19;19919;-56
2022/01/06 12:51:47;;;;;;;;;;;;;;;;;;7389758;19;19923;-59
2022/01/06 12:54:20;;;;;;;;;;;;;;;;;;7391347;19;19970;-56
2022/01/06 12:56:49;;;;;;;;;;;;;;;;;;7391830;19;19935;-55
2022/01/06 12:59:21;;;;;;;;;;;;;;;;;;7392047;19;19930;-54
2022/01/06 13:01:51;;;;;;;;;;;;;;;;;;7391589;19;19922;-53
2022/01/06 13:04:22;;;;;;;;;;;;;;;;;;7391101;19;19918;-59
2022/01/06 13:06:49;;;;;;;;;;;;;;;;;;7390409;19;19915;-52
2022/01/06 13:09:20;;;;;;;;;;;;;;;;;;7390184;19;19923;-54
2022/01/06 13:11:50;;;;;;;;;;;;;;;;;;7389747;19;20341;-51
2022/01/06 13:14:24;;;;;;;;;;;;;;;;;;7390740;19;19942;-53
2022/01/06 13:16:52;;;;;;;;;;;;;;;;;;7389201;19;19929;-55
2022/01/06 13:19:20;;;;;;;;;;;;;;;;;;7396289;19;19974;-50
2022/01/06 13:21:55;;;;;;;;;;;;;;;;;;7398535;19;20356;-50
2022/01/06 13:24:27;;;;;;;;;;;;;;;;;;7399573;19;19927;-51
2022/01/06 13:26:56;;;;;;;;;;;;;;;;;;7398491;19;19936;-56
2022/01/06 13:29:26;;;;;;;;;;;;;;;;;;7395085;19;19975;-55
2022/01/06 13:32:12;;;;;;;;;;;;;;;;;;7391863;19;20336;-52
2022/01/06 13:34:40;;;;;;;;;;;;;;;;;;7398788;19;19911;-53
2022/01/06 13:37:10;;;;;;;;;;;;;;;;;;7397553;19;19918;-57
2022/01/06 13:39:39;;;;;;;;;;;;;;;;;;7397167;19;19923;-58
2022/01/06 13:42:07;;;;;;;;;;;;;;;;;;7396923;19;19922;-54
2022/01/06 13:44:34;;;;;;;;;;;;;;;;;;7397888;19;19979;-51
2022/01/06 13:47:12;;;;;;;;;;;;;;;;;;7397752;19;19919;-52
2022/01/06 13:52:26;;;;;;;;;;;;;;;;;;7397790;19;19939;-51
2022/01/06 13:54:54;;;;;;;;;;;;;;;;;;7394637;19;19915;-51
2022/01/06 13:57:21;;;;;;;;;;;;;;;;;;7396744;19;19910;-56
2022/01/06 13:59:49;;;;;;;;;;;;;;;;;;7393069;19;19922;-50
2022/01/06 14:02:17;;;;;;;;;;;;;;;;;;7393204;19;20487;-52
2022/01/06 14:04:44;;;;;;;;;;;;;;;;;;7393900;19;19915;-49
2022/01/06 14:07:13;;;;;;;;;;;;;;;;;;7391240;19;20343;-50
2022/01/06 14:09:41;;;;;;;;;;;;;;;;;;7393700;19;20073;-55
2022/01/06 14:12:09;;;;;;;;;;;;;;;;;;7389473;19;19940;-55
2022/01/06 14:14:36;;;;;;;;;;;;;;;;;;7393065;19;19915;-54
2022/01/06 14:17:04;;;;;;;;;;;;;;;;;;7392822;19;20364;-51
2022/01/06 14:19:35;;;;;;;;;;;;;;;;;;7393184;19;19919;-55
2022/01/06 14:22:03;;;;;;;;;;;;;;;;;;7390615;19;19986;-55
2022/01/06 14:24:32;;;;;;;;;;;;;;;;;;7393241;19;19919;-53
2022/01/06 14:27:00;;;;;;;;;;;;;;;;;;7392629;19;19919;-56
2022/01/06 14:29:27;;;;;;;;;;;;;;;;;;7391427;19;19919;-51
2022/01/06 14:31:55;;;;;;;;;;;;;;;;;;7390154;19;19943;-52
2022/01/06 14:34:23;;;;;;;;;;;;;;;;;;7392980;19;19919;-55
2022/01/06 14:36:51;;;;;;;;;;;;;;;;;;7391360;19;20286;-56
2022/01/06 14:39:18;;;;;;;;;;;;;;;;;;7390940;19;19918;-58
2022/01/06 14:41:46;;;;;;;;;;;;;;;;;;7392220;19;19919;-61
2022/01/06 14:44:14;;;;;;;;;;;;;;;;;;7390766;19;19922;-55
2022/01/06 14:46:43;;;;;;;;;;;;;;;;;;7390934;19;19922;-54
2022/01/06 14:49:12;;;;;;;;;;;;;;;;;;7391821;19;19979;-56
2022/01/06 14:51:39;;;;;;;;;;;;;;;;;;7395129;19;19939;-58
2022/01/06 14:54:07;;;;;;;;;;;;;;;;;;7391548;19;19935;-53
2022/01/06 14:56:34;;;;;;;;;;;;;;;;;;7391291;19;19915;-60
2022/01/06 14:59:01;;;;;;;;;;;;;;;;;;7391379;19;20049;-51
2022/01/06 15:01:28;;;;;;;;;;;;;;;;;;7392693;19;20001;-55
2022/01/06 15:03:55;;;;;;;;;;;;;;;;;;7391825;19;20385;-56
2022/01/06 15:06:22;;;;;;;;;;;;;;;;;;7391695;19;19939;-58
2022/01/06 15:08:50;;;;;;;;;;;;;;;;;;7391358;19;19919;-55
2022/01/06 15:11:17;;;;;;;;;;;;;;;;;;7389541;19;19919;-55
2022/01/06 15:13:44;;;;;;;;;;;;;;;;;;7390063;19;19926;-57
2022/01/06 15:16:11;;;;;;;;;;;;;;;;;;7390766;19;19947;-58
2022/01/06 15:18:38;;;;;;;;;;;;;;;;;;7387295;19;19915;-55
2022/01/06 15:21:05;;;;;;;;;;;;;;;;;;7387927;19;19919;-58
2022/01/06 15:23:33;;;;;;;;;;;;;;;;;;7386704;19;19939;-56
2022/01/06 15:26:16;;;;;;;;;;;;;;;;;;7387166;19;19918;-56
2022/01/06 15:28:44;;;;;;;;;;;;;;;;;;7388889;19;19998;-58
2022/01/06 15:31:11;;;;;;;;;;;;;;;;;;7386316;19;19956;-56
2022/01/06 15:33:39;;;;;;;;;;;;;;;;;;7388731;19;19943;-56
2022/01/06 15:36:06;;;;;;;;;;;;;;;;;;7390452;19;19919;-58
2022/01/06 15:38:35;;;;;;;;;;;;;;;;;;7393802;19;19915;-57
2022/01/06 15:41:02;;;;;;;;;;;;;;;;;;7393231;19;19915;-59
2022/01/06 15:43:30;;;;;;;;;;;;;;;;;;7394733;19;19938;-57
2022/01/06 15:45:57;;;;;;;;;;;;;;;;;;7394043;19;19953;-57
2022/01/06 15:48:28;;;;;;;;;;;;;;;;;;7393412;19;19915;-55
2022/01/06 15:50:56;;;;;;;;;;;;;;;;;;7394636;19;19919;-57
2022/01/06 15:53:23;;;;;;;;;;;;;;;;;;7394229;19;19915;-58
2022/01/06 15:55:51;;;;;;;;;;;;;;;;;;7392205;19;19914;-58
2022/01/06 15:58:19;;;;;;;;;;;;;;;;;;7393163;19;19978;-55
2022/01/06 16:05:59;;;;;;;;;;;;;;;;;;7394409;19;19939;-54
2022/01/06 16:08:27;;;;;;;;;;;;;;;;;;7393329;19;19919;-53
2022/01/06 16:11:00;;;;;;;;;;;;;;;;;;7391343;19;19922;-54
2022/01/06 16:13:31;;;;;;;;;;;;;;;;;;7393572;19;19922;-51
2022/01/06 16:15:59;;;;;;;;;;;;;;;;;;7391688;19;19915;-58
2022/01/06 16:18:27;;;;;;;;;;;;;;;;;;7393291;19;19922;-52
2022/01/06 16:20:55;;;;;;;;;;;;;;;;;;7392446;19;19923;-51
2022/01/06 16:23:23;;;;;;;;;;;;;;;;;;7392485;19;19933;-53
2022/01/06 16:25:50;;;;;;;;;;;;;;;;;;7390891;19;19925;-58
2022/01/06 16:28:18;;;;;;;;;;;;;;;;;;7390884;19;20333;-52
2022/01/06 16:30:47;;;;;;;;;;;;;;;;;;7391788;19;19936;-56
2022/01/06 16:33:15;;;;;;;;;;;;;;;;;;7391842;19;19918;-55
2022/01/06 16:35:42;;;;;;;;;;;;;;;;;;7392381;19;19980;-56
2022/01/06 16:38:09;;;;;;;;;;;;;;;;;;7391911;19;20312;-54
2022/01/06 16:40:36;;;;;;;;;;;;;;;;;;7392951;19;19946;-55
2022/01/06 16:43:04;;;;;;;;;;;;;;;;;;7392378;19;19928;-52
2022/01/06 16:45:31;;;;;;;;;;;;;;;;;;7391309;19;19929;-56
2022/01/06 16:47:58;;;;;;;;;;;;;;;;;;7391161;19;19930;-59
2022/01/06 16:50:26;;;;;;;;;;;;;;;;;;7393546;19;19929;-53
2022/01/06 16:52:54;;;;;;;;;;;;;;;;;;7389521;19;20340;-57
2022/01/06 16:55:22;;;;;;;;;;;;;;;;;;7391009;19;19915;-56
2022/01/06 16:57:50;;;;;;;;;;;;;;;;;;7391296;19;19919;-57
2022/01/06 17:00:17;;;;;;;;;;;;;;;;;;7391940;19;19927;-53
2022/01/06 17:02:45;;;;;;;;;;;;;;;;;;7392105;19;19938;-54
2022/01/06 17:05:14;;;;;;;;;;;;;;;;;;7391223;19;19921;-55
2022/01/06 17:07:42;;;;;;;;;;;;;;;;;;7391701;19;19936;-58
2022/01/06 17:10:11;;;;;;;;;;;;;;;;;;7391378;19;19933;-56